TAF LEVC
LEVC 090500Z 0906/1006 27015KT 9999 FEW040 TX18/0912Z TN08/0906Z TEMPO 0908/0917 27015G25KT TEMPO 1002/1005 27015G25KT=
METAR LEVC
LEVC 090700Z 25012KT 9999 FEW040 09/01 Q1019 NOSIG=
LEVC 090630Z 25013KT 9999 FEW040 09/01 Q1018 NOSIG=
LEVC 090600Z 25013KT 9999 FEW040 09/01 Q1018 NOSIG=
LEVC 090530Z 25012KT 9999 FEW040 09/01 Q1018 NOSIG=
LEVC 090500Z 25014KT 9999 FEW040 09/00 Q1018 NOSIG=
WC LEVC
WS LEVC
WV LEVC